Overview Statistics Trail Chart Weather Telemetry Raw packets
 

This is the latest recevied weather packets stored in our database for station/object W8LMG. If no packets are shown the sender has not sent any weather packets the latest 10 day(s).

<< 108 109 110 111 112 113 114 >>
Time Temp. Humidity Pressure Rain* Wind** Luminosity Snow
1787786456 21.67° C 90% 1017.8 hPa 0 mm - 12 W/m² -
1787786151 22.22° C 89% 1018 hPa 0 mm - 13 W/m² -
1787785847 22.22° C 88% 1018 hPa 0 mm - 16 W/m² -
1787785542 22.22° C 88% 1018.1 hPa 0 mm - 18 W/m² -
1787785242 22.78° C 88% 1018 hPa 0 mm - 20 W/m² -
1787784937 22.78° C 87% 1018.2 hPa 0 mm - 23 W/m² -
1787784636 22.78° C 87% 1018.1 hPa 0 mm - 26 W/m² -
1787784335 23.33° C 84% 1018.3 hPa 0 mm - 27 W/m² -
1787784030 23.33° C 84% 1018.1 hPa 0 mm - 34 W/m² -
1787783726 23.33° C 84% 1018 hPa 0 mm - 40 W/m² -
1787783426 23.89° C 83% 1018.1 hPa 0 mm - 42 W/m² -
1787783122 23.89° C 83% 1018.2 hPa 0 mm - 43 W/m² -
1787782821 23.89° C 84% 1018 hPa 0 mm - 47 W/m² -
1787782517 24.44° C 82% 1018.1 hPa 0 mm - 53 W/m² -
1787782216 24.44° C 82% 1018.1 hPa 0 mm - 63 W/m² -
1787781913 24.44° C 82% 1018.1 hPa 0 mm - 68 W/m² -
1787781613 24.44° C 81% 1018.3 hPa 0 mm - 73 W/m² -
1787781310 25° C 80% 1018.3 hPa 0 mm - 84 W/m² -
1787781009 24.44° C 82% 1018.3 hPa 0 mm - 102 W/m² -
1787780704 24.44° C 81% 1018.5 hPa 0 mm - 98 W/m² -
1787780403 24.44° C 82% 1018.2 hPa 0 mm - 101 W/m² -
1787780103 24.44° C 80% 1018.3 hPa 0 mm - 96 W/m² -
1787779794 24.44° C 80% 1018.4 hPa 0 mm - 108 W/m² -
1787779494 24.44° C 80% 1018.4 hPa 0 mm - 102 W/m² -
1787779193 24.44° C 77% 1018.4 hPa 0 mm - 89 W/m² -

* Rain latest hour (hover to see other rain measurements)
** Current wind speed in m/s (hover to see current wind gust speed)